Messwerte Waterloo Well

Temperatur

Temperatur
°C
1575986400 9.00 9.00
1575990000 10.00 10.00 -1
1575993600 11.00 11.00 -1
1575997200 12.00 12.00 -2
1576000800 13.00 13.00 -3
1576004400 14.00 14.00 -3
1576008000 15.00 15.00 -4
1576011600 16.00 16.00 -4
1576015200 17.00 17.00 -6
1576018800 18.00 18.00 -6
1576022400 19.00 19.00 -6
1576026000 20.00 20.00 -6
1576029600 21.00 21.00 -6
1576033200 22.00 22.00 -6
1576036800 23.00 23.00 -6
1576040400 0.00 0.00 -6
1576044000 1.00 1.00 -6
1576047600 2.00 2.00 -6
1576051200 3.00 3.00 -7
1576054800 4.00 4.00 -6
1576058400 5.00 5.00
1576062000 6.00 6.00 -6
1576065600 7.00 7.00 -7
1576069200 8.00 8.00

Wir danken unserem Partner:

Aktuellste Messwerte

Wettercharakter
Wetter: bedeckt, etwas Schnee
Temperatur
-7 °C
Feuchtigkeit
85 %
Wind
25 km/hWindrichtung: Südwest
Böen
30 km/h
Luftdruck
1021 hPa
Messzeit: 11. Dezember 2019, 8.00Datenquelle: METAR

Weitere Messstationen in der Nähe

Messstation Temperatur Entfernung
Hamilton Airport -6 °C 49 km
Burlington Piers -3 °C 51 km
Mount Forest -8 °C 64 km
Ottawa -7 °C 65 km
Toronto -5 °C 67 km
Delhi CS -6 °C 68 km
Toronto -4 °C 82 km

Wind

Windrichtung Böen Mittelwind
° km/h km/h
1575986400 9.00 8.00 - 9.00
1575990000 10.00 9.00 - 10.00 290° 35 25
1575993600 11.00 10.00 - 11.00 290° 40 25
1575997200 12.00 11.00 - 12.00 300° 40 25
1576000800 13.00 12.00 - 13.00 300° 40 25
1576004400 14.00 13.00 - 14.00 290° 35 25
1576008000 15.00 14.00 - 15.00 310° 40 25
1576011600 16.00 15.00 - 16.00 310° 30 20
1576015200 17.00 16.00 - 17.00 300° 30 20
1576018800 18.00 17.00 - 18.00 300° 30 20
1576022400 19.00 18.00 - 19.00 300° 15
1576026000 20.00 19.00 - 20.00 310° 10
1576029600 21.00 20.00 - 21.00 5
1576033200 22.00 21.00 - 22.00 230° 5
1576036800 23.00 22.00 - 23.00 230° 10
1576040400 0.00 23.00 - 0.00 220° 15
1576044000 1.00 0.00 - 1.00 230° 15
1576047600 2.00 1.00 - 2.00 240° 15
1576051200 3.00 2.00 - 3.00 250° 30 20
1576054800 4.00 3.00 - 4.00 240° 30 20
1576058400 5.00 4.00 - 5.00
1576062000 6.00 5.00 - 6.00 230° 30 20
1576065600 7.00 6.00 - 7.00 240° 45 20
1576069200 8.00 7.00 - 8.00

Ihre Wetterstation

Fehlt Ihre Wetterstation auf unserem Portal?

Schreiben Sie an network@meteonews.ch

Klima

Wann ist es am wärmsten? Wann regnet es am wenigsten? Unsere Klimadaten geben Auskunft.